sensor_id;sensor_type;location;lat;lon;timestamp;temperature;humidity
36416;DHT22;22447;44.530;18.620;2023-04-15T00:00:49;7.60;99.90
36416;DHT22;22447;44.530;18.620;2023-04-15T00:03:16;7.60;99.90
36416;DHT22;22447;44.530;18.620;2023-04-15T00:05:43;7.50;99.90
36416;DHT22;22447;44.530;18.620;2023-04-15T00:08:09;7.50;99.90
36416;DHT22;22447;44.530;18.620;2023-04-15T00:10:34;7.40;99.90
36416;DHT22;22447;44.530;18.620;2023-04-15T00:13:00;7.30;99.90
36416;DHT22;22447;44.530;18.620;2023-04-15T00:15:27;7.30;99.90
36416;DHT22;22447;44.530;18.620;2023-04-15T00:17:53;7.10;99.90
36416;DHT22;22447;44.530;18.620;2023-04-15T00:20:18;7.00;99.90
36416;DHT22;22447;44.530;18.620;2023-04-15T00:22:44;6.90;99.90
36416;DHT22;22447;44.530;18.620;2023-04-15T00:25:10;6.90;99.90
36416;DHT22;22447;44.530;18.620;2023-04-15T00:27:37;6.80;99.90
36416;DHT22;22447;44.530;18.620;2023-04-15T00:30:03;6.70;99.90
36416;DHT22;22447;44.530;18.620;2023-04-15T00:32:29;6.90;99.90
36416;DHT22;22447;44.530;18.620;2023-04-15T00:34:55;6.80;99.90
36416;DHT22;22447;44.530;18.620;2023-04-15T00:37:22;6.60;99.90
36416;DHT22;22447;44.530;18.620;2023-04-15T00:39:48;6.60;99.90
36416;DHT22;22447;44.530;18.620;2023-04-15T00:42:14;6.60;99.90
36416;DHT22;22447;44.530;18.620;2023-04-15T00:44:40;6.50;99.90
36416;DHT22;22447;44.530;18.620;2023-04-15T00:47:07;6.40;99.90
36416;DHT22;22447;44.530;18.620;2023-04-15T00:49:33;6.30;99.90
36416;DHT22;22447;44.530;18.620;2023-04-15T00:52:00;6.20;99.90
36416;DHT22;22447;44.530;18.620;2023-04-15T00:54:26;6.00;99.90
36416;DHT22;22447;44.530;18.620;2023-04-15T00:56:52;6.00;99.90
36416;DHT22;22447;44.530;18.620;2023-04-15T00:59:19;5.90;99.90
36416;DHT22;22447;44.530;18.620;2023-04-15T01:01:45;5.90;99.90
36416;DHT22;22447;44.530;18.620;2023-04-15T01:04:12;5.80;99.90
36416;DHT22;22447;44.530;18.620;2023-04-15T01:06:38;5.70;99.90
36416;DHT22;22447;44.530;18.620;2023-04-15T01:09:03;5.70;99.90
36416;DHT22;22447;44.530;18.620;2023-04-15T01:11:30;5.70;99.90
36416;DHT22;22447;44.530;18.620;2023-04-15T01:13:59;5.80;99.90
36416;DHT22;22447;44.530;18.620;2023-04-15T01:16:26;5.80;99.90
36416;DHT22;22447;44.530;18.620;2023-04-15T01:18:53;5.90;99.90
36416;DHT22;22447;44.530;18.620;2023-04-15T01:21:19;5.90;99.90
36416;DHT22;22447;44.530;18.620;2023-04-15T01:23:46;5.80;99.90
36416;DHT22;22447;44.530;18.620;2023-04-15T01:26:12;6.00;99.90
36416;DHT22;22447;44.530;18.620;2023-04-15T01:28:38;6.00;99.90
36416;DHT22;22447;44.530;18.620;2023-04-15T01:31:11;6.00;99.90
36416;DHT22;22447;44.530;18.620;2023-04-15T01:33:38;5.90;99.90
36416;DHT22;22447;44.530;18.620;2023-04-15T01:36:05;6.00;99.90
36416;DHT22;22447;44.530;18.620;2023-04-15T01:38:33;6.10;99.90
36416;DHT22;22447;44.530;18.620;2023-04-15T01:40:59;6.00;99.90
36416;DHT22;22447;44.530;18.620;2023-04-15T01:43:25;6.00;99.90
36416;DHT22;22447;44.530;18.620;2023-04-15T01:45:51;5.90;99.90
36416;DHT22;22447;44.530;18.620;2023-04-15T01:48:17;5.90;99.90
36416;DHT22;22447;44.530;18.620;2023-04-15T01:50:43;6.00;99.90
36416;DHT22;22447;44.530;18.620;2023-04-15T01:53:09;6.00;99.90
36416;DHT22;22447;44.530;18.620;2023-04-15T01:55:35;6.10;99.90
36416;DHT22;22447;44.530;18.620;2023-04-15T01:58:01;6.00;99.90
36416;DHT22;22447;44.530;18.620;2023-04-15T02:00:27;5.80;99.90
36416;DHT22;22447;44.530;18.620;2023-04-15T02:02:53;5.70;99.90
36416;DHT22;22447;44.530;18.620;2023-04-15T02:05:19;5.60;99.90
36416;DHT22;22447;44.530;18.620;2023-04-15T02:07:46;5.60;99.90
36416;DHT22;22447;44.530;18.620;2023-04-15T02:10:12;5.60;99.90
36416;DHT22;22447;44.530;18.620;2023-04-15T02:12:38;5.60;99.90
36416;DHT22;22447;44.530;18.620;2023-04-15T02:15:05;5.50;99.90
36416;DHT22;22447;44.530;18.620;2023-04-15T02:17:35;5.60;99.90
36416;DHT22;22447;44.530;18.620;2023-04-15T02:20:01;5.50;99.90
36416;DHT22;22447;44.530;18.620;2023-04-15T02:22:27;5.50;99.90
36416;DHT22;22447;44.530;18.620;2023-04-15T02:24:53;5.30;99.90
36416;DHT22;22447;44.530;18.620;2023-04-15T02:27:19;5.30;99.90
36416;DHT22;22447;44.530;18.620;2023-04-15T02:29:45;5.20;99.90
36416;DHT22;22447;44.530;18.620;2023-04-15T02:32:11;5.20;99.90
36416;DHT22;22447;44.530;18.620;2023-04-15T02:34:40;5.20;99.90
36416;DHT22;22447;44.530;18.620;2023-04-15T02:37:11;5.30;99.90
36416;DHT22;22447;44.530;18.620;2023-04-15T02:39:37;5.40;99.90
36416;DHT22;22447;44.530;18.620;2023-04-15T02:42:03;5.50;99.90
36416;DHT22;22447;44.530;18.620;2023-04-15T02:44:31;5.50;99.90
36416;DHT22;22447;44.530;18.620;2023-04-15T02:47:00;5.60;99.90
36416;DHT22;22447;44.530;18.620;2023-04-15T02:49:26;5.50;99.90
36416;DHT22;22447;44.530;18.620;2023-04-15T02:51:55;5.50;99.90
36416;DHT22;22447;44.530;18.620;2023-04-15T02:54:23;5.50;99.90
36416;DHT22;22447;44.530;18.620;2023-04-15T02:56:49;5.70;99.90
36416;DHT22;22447;44.530;18.620;2023-04-15T02:59:15;5.70;99.90
36416;DHT22;22447;44.530;18.620;2023-04-15T03:01:41;5.80;99.90
36416;DHT22;22447;44.530;18.620;2023-04-15T03:04:07;5.80;99.90
36416;DHT22;22447;44.530;18.620;2023-04-15T03:06:34;5.80;99.90
36416;DHT22;22447;44.530;18.620;2023-04-15T03:08:59;5.80;99.90
36416;DHT22;22447;44.530;18.620;2023-04-15T03:11:30;5.90;99.90
36416;DHT22;22447;44.530;18.620;2023-04-15T03:13:56;6.00;99.90
36416;DHT22;22447;44.530;18.620;2023-04-15T03:16:31;5.80;99.90
36416;DHT22;22447;44.530;18.620;2023-04-15T03:18:57;5.70;99.90
36416;DHT22;22447;44.530;18.620;2023-04-15T03:21:23;5.70;99.90
36416;DHT22;22447;44.530;18.620;2023-04-15T03:23:49;5.40;99.90
36416;DHT22;22447;44.530;18.620;2023-04-15T03:26:49;5.50;99.90
36416;DHT22;22447;44.530;18.620;2023-04-15T03:29:11;5.40;99.90
36416;DHT22;22447;44.530;18.620;2023-04-15T03:31:38;5.40;99.90
36416;DHT22;22447;44.530;18.620;2023-04-15T03:34:04;5.40;99.90
36416;DHT22;22447;44.530;18.620;2023-04-15T03:36:30;5.30;99.90
36416;DHT22;22447;44.530;18.620;2023-04-15T03:38:59;5.30;99.90
36416;DHT22;22447;44.530;18.620;2023-04-15T03:41:26;5.40;99.90
36416;DHT22;22447;44.530;18.620;2023-04-15T03:43:53;5.50;99.90
36416;DHT22;22447;44.530;18.620;2023-04-15T03:46:19;5.50;99.90
36416;DHT22;22447;44.530;18.620;2023-04-15T03:48:45;5.50;99.90
36416;DHT22;22447;44.530;18.620;2023-04-15T03:51:11;5.60;99.90
36416;DHT22;22447;44.530;18.620;2023-04-15T03:53:37;5.60;99.90
36416;DHT22;22447;44.530;18.620;2023-04-15T03:56:02;5.60;99.90
36416;DHT22;22447;44.530;18.620;2023-04-15T03:58:28;5.60;99.90
36416;DHT22;22447;44.530;18.620;2023-04-15T04:00:54;5.60;99.90
36416;DHT22;22447;44.530;18.620;2023-04-15T04:03:20;5.50;99.90
36416;DHT22;22447;44.530;18.620;2023-04-15T04:05:46;5.50;99.90
36416;DHT22;22447;44.530;18.620;2023-04-15T04:08:11;5.40;99.90
36416;DHT22;22447;44.530;18.620;2023-04-15T04:10:41;5.40;99.90
36416;DHT22;22447;44.530;18.620;2023-04-15T04:13:07;5.50;99.90
36416;DHT22;22447;44.530;18.620;2023-04-15T04:15:33;5.50;99.90
36416;DHT22;22447;44.530;18.620;2023-04-15T04:17:58;5.50;99.90
36416;DHT22;22447;44.530;18.620;2023-04-15T04:20:24;5.30;99.90
36416;DHT22;22447;44.530;18.620;2023-04-15T04:22:50;5.30;99.90
36416;DHT22;22447;44.530;18.620;2023-04-15T04:25:16;5.10;99.90
36416;DHT22;22447;44.530;18.620;2023-04-15T04:27:42;5.10;99.90
36416;DHT22;22447;44.530;18.620;2023-04-15T04:30:08;5.20;99.90
36416;DHT22;22447;44.530;18.620;2023-04-15T04:32:34;5.20;99.90
36416;DHT22;22447;44.530;18.620;2023-04-15T04:35:00;5.20;99.90
36416;DHT22;22447;44.530;18.620;2023-04-15T04:37:25;5.30;99.90
36416;DHT22;22447;44.530;18.620;2023-04-15T04:39:51;5.30;99.90
36416;DHT22;22447;44.530;18.620;2023-04-15T04:42:17;5.40;99.90
36416;DHT22;22447;44.530;18.620;2023-04-15T04:44:43;5.60;99.90
36416;DHT22;22447;44.530;18.620;2023-04-15T04:47:09;5.60;99.90
36416;DHT22;22447;44.530;18.620;2023-04-15T04:49:34;5.60;99.90
36416;DHT22;22447;44.530;18.620;2023-04-15T04:52:01;5.80;99.90
36416;DHT22;22447;44.530;18.620;2023-04-15T04:54:27;5.90;99.90
36416;DHT22;22447;44.530;18.620;2023-04-15T04:56:52;6.00;99.90
36416;DHT22;22447;44.530;18.620;2023-04-15T04:59:18;6.00;99.90
36416;DHT22;22447;44.530;18.620;2023-04-15T05:01:44;6.30;99.90
36416;DHT22;22447;44.530;18.620;2023-04-15T05:04:10;6.40;99.90
36416;DHT22;22447;44.530;18.620;2023-04-15T05:06:36;6.60;99.90
36416;DHT22;22447;44.530;18.620;2023-04-15T05:09:01;6.60;99.90
36416;DHT22;22447;44.530;18.620;2023-04-15T05:11:28;6.70;99.90
36416;DHT22;22447;44.530;18.620;2023-04-15T05:13:54;6.50;99.90
36416;DHT22;22447;44.530;18.620;2023-04-15T05:16:20;6.60;99.90
36416;DHT22;22447;44.530;18.620;2023-04-15T05:18:45;6.60;99.90
36416;DHT22;22447;44.530;18.620;2023-04-15T05:21:11;6.70;99.90
36416;DHT22;22447;44.530;18.620;2023-04-15T05:23:37;6.80;99.90
36416;DHT22;22447;44.530;18.620;2023-04-15T05:26:03;6.90;99.90
36416;DHT22;22447;44.530;18.620;2023-04-15T05:28:29;7.10;99.90
36416;DHT22;22447;44.530;18.620;2023-04-15T05:30:55;7.30;99.90
36416;DHT22;22447;44.530;18.620;2023-04-15T05:33:21;7.50;99.90
36416;DHT22;22447;44.530;18.620;2023-04-15T05:35:47;7.70;99.90
36416;DHT22;22447;44.530;18.620;2023-04-15T05:38:13;7.60;99.90
36416;DHT22;22447;44.530;18.620;2023-04-15T05:40:39;7.80;99.90
36416;DHT22;22447;44.530;18.620;2023-04-15T05:43:05;7.90;99.90
36416;DHT22;22447;44.530;18.620;2023-04-15T05:45:31;8.00;99.90
36416;DHT22;22447;44.530;18.620;2023-04-15T05:47:56;8.20;99.90
36416;DHT22;22447;44.530;18.620;2023-04-15T05:50:22;8.10;99.90
36416;DHT22;22447;44.530;18.620;2023-04-15T05:52:48;8.20;99.90
36416;DHT22;22447;44.530;18.620;2023-04-15T05:55:14;8.30;99.90
36416;DHT22;22447;44.530;18.620;2023-04-15T05:57:40;8.50;99.90
36416;DHT22;22447;44.530;18.620;2023-04-15T06:00:06;8.80;99.90
36416;DHT22;22447;44.530;18.620;2023-04-15T06:02:38;9.00;99.90
36416;DHT22;22447;44.530;18.620;2023-04-15T06:05:04;9.30;99.90
36416;DHT22;22447;44.530;18.620;2023-04-15T06:07:36;9.50;99.90
36416;DHT22;22447;44.530;18.620;2023-04-15T06:10:05;10.00;99.90
36416;DHT22;22447;44.530;18.620;2023-04-15T06:12:31;10.40;99.90
36416;DHT22;22447;44.530;18.620;2023-04-15T06:14:57;10.60;99.90
36416;DHT22;22447;44.530;18.620;2023-04-15T06:17:23;10.60;98.00
36416;DHT22;22447;44.530;18.620;2023-04-15T06:19:49;10.80;98.10
36416;DHT22;22447;44.530;18.620;2023-04-15T06:22:22;10.80;96.60
36416;DHT22;22447;44.530;18.620;2023-04-15T06:24:48;11.30;97.30
36416;DHT22;22447;44.530;18.620;2023-04-15T06:27:17;11.60;95.40
36416;DHT22;22447;44.530;18.620;2023-04-15T06:29:43;11.60;94.00
36416;DHT22;22447;44.530;18.620;2023-04-15T06:32:09;11.60;92.80
36416;DHT22;22447;44.530;18.620;2023-04-15T06:34:35;11.70;93.20
36416;DHT22;22447;44.530;18.620;2023-04-15T06:37:01;12.20;94.30
36416;DHT22;22447;44.530;18.620;2023-04-15T06:39:27;12.40;91.80
36416;DHT22;22447;44.530;18.620;2023-04-15T06:41:52;12.70;89.50
36416;DHT22;22447;44.530;18.620;2023-04-15T06:44:20;12.90;87.20
36416;DHT22;22447;44.530;18.620;2023-04-15T06:46:46;12.90;88.70
36416;DHT22;22447;44.530;18.620;2023-04-15T06:49:12;12.90;87.60
36416;DHT22;22447;44.530;18.620;2023-04-15T06:51:37;13.40;86.00
36416;DHT22;22447;44.530;18.620;2023-04-15T06:54:03;13.40;83.20
36416;DHT22;22447;44.530;18.620;2023-04-15T06:56:31;13.80;83.20
36416;DHT22;22447;44.530;18.620;2023-04-15T06:58:57;14.00;80.90
36416;DHT22;22447;44.530;18.620;2023-04-15T07:01:22;14.20;77.00
36416;DHT22;22447;44.530;18.620;2023-04-15T07:03:48;14.40;77.30
36416;DHT22;22447;44.530;18.620;2023-04-15T07:06:14;14.70;74.70
36416;DHT22;22447;44.530;18.620;2023-04-15T07:08:40;14.90;77.00
36416;DHT22;22447;44.530;18.620;2023-04-15T07:11:06;15.20;73.10
36416;DHT22;22447;44.530;18.620;2023-04-15T07:13:32;15.40;71.60
36416;DHT22;22447;44.530;18.620;2023-04-15T07:15:57;15.10;66.10
36416;DHT22;22447;44.530;18.620;2023-04-15T07:18:23;15.40;68.70
36416;DHT22;22447;44.530;18.620;2023-04-15T07:20:49;15.40;65.40
36416;DHT22;22447;44.530;18.620;2023-04-15T07:23:15;15.50;65.70
36416;DHT22;22447;44.530;18.620;2023-04-15T07:25:41;15.40;66.40
36416;DHT22;22447;44.530;18.620;2023-04-15T07:28:06;15.50;66.80
36416;DHT22;22447;44.530;18.620;2023-04-15T07:30:32;15.40;68.00
36416;DHT22;22447;44.530;18.620;2023-04-15T07:32:59;15.30;72.40
36416;DHT22;22447;44.530;18.620;2023-04-15T07:35:24;15.40;72.60
36416;DHT22;22447;44.530;18.620;2023-04-15T07:37:51;15.30;68.20
36416;DHT22;22447;44.530;18.620;2023-04-15T07:40:16;15.20;70.20
36416;DHT22;22447;44.530;18.620;2023-04-15T07:42:42;15.30;71.30
36416;DHT22;22447;44.530;18.620;2023-04-15T07:45:08;15.40;70.40
36416;DHT22;22447;44.530;18.620;2023-04-15T07:47:34;15.40;70.30
36416;DHT22;22447;44.530;18.620;2023-04-15T07:50:00;15.20;68.90
36416;DHT22;22447;44.530;18.620;2023-04-15T07:52:26;15.20;68.50
36416;DHT22;22447;44.530;18.620;2023-04-15T07:54:52;15.30;70.00
36416;DHT22;22447;44.530;18.620;2023-04-15T07:57:18;15.50;69.10
36416;DHT22;22447;44.530;18.620;2023-04-15T07:59:44;15.90;67.40
36416;DHT22;22447;44.530;18.620;2023-04-15T08:02:10;16.20;67.20
36416;DHT22;22447;44.530;18.620;2023-04-15T08:04:36;16.60;67.10
36416;DHT22;22447;44.530;18.620;2023-04-15T08:07:02;16.80;64.10
36416;DHT22;22447;44.530;18.620;2023-04-15T08:09:28;16.90;60.30
36416;DHT22;22447;44.530;18.620;2023-04-15T08:11:54;17.40;61.80
36416;DHT22;22447;44.530;18.620;2023-04-15T08:14:21;18.50;63.80
36416;DHT22;22447;44.530;18.620;2023-04-15T08:16:47;18.20;62.60
36416;DHT22;22447;44.530;18.620;2023-04-15T08:19:13;18.30;67.60
36416;DHT22;22447;44.530;18.620;2023-04-15T08:21:38;18.70;62.10
36416;DHT22;22447;44.530;18.620;2023-04-15T08:24:05;19.30;65.70
36416;DHT22;22447;44.530;18.620;2023-04-15T08:26:31;19.80;63.50
36416;DHT22;22447;44.530;18.620;2023-04-15T08:28:57;20.20;62.50
36416;DHT22;22447;44.530;18.620;2023-04-15T08:31:25;20.30;57.80
36416;DHT22;22447;44.530;18.620;2023-04-15T08:33:51;20.20;57.60
36416;DHT22;22447;44.530;18.620;2023-04-15T08:36:18;20.50;57.20
36416;DHT22;22447;44.530;18.620;2023-04-15T08:38:44;20.10;58.40
36416;DHT22;22447;44.530;18.620;2023-04-15T08:41:22;20.20;57.50
36416;DHT22;22447;44.530;18.620;2023-04-15T08:43:52;20.20;56.30
36416;DHT22;22447;44.530;18.620;2023-04-15T08:46:19;20.40;54.80
36416;DHT22;22447;44.530;18.620;2023-04-15T08:48:46;21.00;55.10
36416;DHT22;22447;44.530;18.620;2023-04-15T08:51:12;21.30;53.90
36416;DHT22;22447;44.530;18.620;2023-04-15T08:53:41;21.90;56.30
36416;DHT22;22447;44.530;18.620;2023-04-15T08:56:07;22.30;51.50
36416;DHT22;22447;44.530;18.620;2023-04-15T08:58:34;22.20;49.60
36416;DHT22;22447;44.530;18.620;2023-04-15T09:01:00;21.90;51.00
36416;DHT22;22447;44.530;18.620;2023-04-15T09:03:26;21.80;50.40
36416;DHT22;22447;44.530;18.620;2023-04-15T09:05:52;21.90;52.10
36416;DHT22;22447;44.530;18.620;2023-04-15T09:08:19;22.20;50.60
36416;DHT22;22447;44.530;18.620;2023-04-15T09:10:44;22.10;49.90
36416;DHT22;22447;44.530;18.620;2023-04-15T09:13:10;22.20;49.60
36416;DHT22;22447;44.530;18.620;2023-04-15T09:15:39;22.00;50.50
36416;DHT22;22447;44.530;18.620;2023-04-15T09:18:05;21.90;48.00
36416;DHT22;22447;44.530;18.620;2023-04-15T09:20:40;21.90;48.90
36416;DHT22;22447;44.530;18.620;2023-04-15T09:23:12;22.10;46.40
36416;DHT22;22447;44.530;18.620;2023-04-15T09:25:38;22.00;47.40
36416;DHT22;22447;44.530;18.620;2023-04-15T09:28:04;22.10;47.30
36416;DHT22;22447;44.530;18.620;2023-04-15T09:30:30;22.00;46.10
36416;DHT22;22447;44.530;18.620;2023-04-15T09:33:00;21.90;49.00
36416;DHT22;22447;44.530;18.620;2023-04-15T09:35:35;21.80;47.30
36416;DHT22;22447;44.530;18.620;2023-04-15T09:38:05;21.70;49.90
36416;DHT22;22447;44.530;18.620;2023-04-15T09:40:32;21.60;48.00
36416;DHT22;22447;44.530;18.620;2023-04-15T09:42:58;22.20;52.30
36416;DHT22;22447;44.530;18.620;2023-04-15T09:45:24;22.60;49.00
36416;DHT22;22447;44.530;18.620;2023-04-15T09:47:50;22.60;45.80
36416;DHT22;22447;44.530;18.620;2023-04-15T09:50:17;23.20;46.90
36416;DHT22;22447;44.530;18.620;2023-04-15T09:52:43;23.50;45.10
36416;DHT22;22447;44.530;18.620;2023-04-15T09:55:10;23.20;40.50
36416;DHT22;22447;44.530;18.620;2023-04-15T09:57:36;22.40;44.80
36416;DHT22;22447;44.530;18.620;2023-04-15T10:00:05;22.30;46.60
36416;DHT22;22447;44.530;18.620;2023-04-15T10:02:32;22.60;49.00
36416;DHT22;22447;44.530;18.620;2023-04-15T10:04:58;22.90;45.90
36416;DHT22;22447;44.530;18.620;2023-04-15T10:07:24;22.50;42.10
36416;DHT22;22447;44.530;18.620;2023-04-15T10:09:50;22.50;47.70
36416;DHT22;22447;44.530;18.620;2023-04-15T10:12:17;22.50;41.40
36416;DHT22;22447;44.530;18.620;2023-04-15T10:14:43;22.50;39.50
36416;DHT22;22447;44.530;18.620;2023-04-15T10:17:10;22.30;41.20
36416;DHT22;22447;44.530;18.620;2023-04-15T10:19:36;22.20;39.60
36416;DHT22;22447;44.530;18.620;2023-04-15T10:22:02;22.20;43.10
36416;DHT22;22447;44.530;18.620;2023-04-15T10:24:31;22.70;42.20
36416;DHT22;22447;44.530;18.620;2023-04-15T10:26:58;22.70;40.40
36416;DHT22;22447;44.530;18.620;2023-04-15T10:29:24;23.00;38.40
36416;DHT22;22447;44.530;18.620;2023-04-15T10:31:53;23.40;38.80
36416;DHT22;22447;44.530;18.620;2023-04-15T10:34:20;23.70;37.40
36416;DHT22;22447;44.530;18.620;2023-04-15T10:36:46;24.00;37.00
36416;DHT22;22447;44.530;18.620;2023-04-15T10:42:13;23.90;36.10
36416;DHT22;22447;44.530;18.620;2023-04-15T10:44:50;24.00;42.20
36416;DHT22;22447;44.530;18.620;2023-04-15T10:47:19;24.30;39.90
36416;DHT22;22447;44.530;18.620;2023-04-15T10:49:46;22.90;36.90
36416;DHT22;22447;44.530;18.620;2023-04-15T10:52:13;23.20;36.00
36416;DHT22;22447;44.530;18.620;2023-04-15T10:54:39;22.90;35.60
36416;DHT22;22447;44.530;18.620;2023-04-15T10:59:31;22.50;34.50
36416;DHT22;22447;44.530;18.620;2023-04-15T11:02:01;21.70;34.90
36416;DHT22;22447;44.530;18.620;2023-04-15T11:07:11;21.20;35.80
36416;DHT22;22447;44.530;18.620;2023-04-15T11:09:37;21.20;36.40
36416;DHT22;22447;44.530;18.620;2023-04-15T11:12:09;21.10;37.40
36416;DHT22;22447;44.530;18.620;2023-04-15T11:14:40;21.20;37.80
36416;DHT22;22447;44.530;18.620;2023-04-15T11:17:07;21.40;38.10
36416;DHT22;22447;44.530;18.620;2023-04-15T11:19:37;21.90;38.40
36416;DHT22;22447;44.530;18.620;2023-04-15T11:22:07;21.90;39.20
36416;DHT22;22447;44.530;18.620;2023-04-15T11:24:33;21.50;38.20
36416;DHT22;22447;44.530;18.620;2023-04-15T11:27:00;21.30;38.30
36416;DHT22;22447;44.530;18.620;2023-04-15T11:29:29;20.60;40.00
36416;DHT22;22447;44.530;18.620;2023-04-15T11:32:04;19.80;40.70
36416;DHT22;22447;44.530;18.620;2023-04-15T11:34:31;19.20;42.00
36416;DHT22;22447;44.530;18.620;2023-04-15T11:36:57;19.00;44.10
36416;DHT22;22447;44.530;18.620;2023-04-15T11:39:23;18.90;45.00
36416;DHT22;22447;44.530;18.620;2023-04-15T11:41:49;18.60;44.80
36416;DHT22;22447;44.530;18.620;2023-04-15T11:44:15;18.20;46.30
36416;DHT22;22447;44.530;18.620;2023-04-15T11:46:41;18.00;47.10
36416;DHT22;22447;44.530;18.620;2023-04-15T11:49:07;18.20;47.60
36416;DHT22;22447;44.530;18.620;2023-04-15T11:51:33;18.50;47.60
36416;DHT22;22447;44.530;18.620;2023-04-15T11:53:59;18.30;45.70
36416;DHT22;22447;44.530;18.620;2023-04-15T11:56:25;18.50;46.90
36416;DHT22;22447;44.530;18.620;2023-04-15T11:58:57;18.50;44.90
36416;DHT22;22447;44.530;18.620;2023-04-15T12:01:31;18.40;44.60
36416;DHT22;22447;44.530;18.620;2023-04-15T12:03:57;18.30;46.60
36416;DHT22;22447;44.530;18.620;2023-04-15T12:06:24;18.20;47.70
36416;DHT22;22447;44.530;18.620;2023-04-15T12:11:29;18.10;49.00
36416;DHT22;22447;44.530;18.620;2023-04-15T12:13:58;17.70;52.00
36416;DHT22;22447;44.530;18.620;2023-04-15T12:16:27;17.80;53.20
36416;DHT22;22447;44.530;18.620;2023-04-15T12:18:54;17.70;51.80
36416;DHT22;22447;44.530;18.620;2023-04-15T12:21:24;17.60;52.20
36416;DHT22;22447;44.530;18.620;2023-04-15T12:26:17;16.70;56.80
36416;DHT22;22447;44.530;18.620;2023-04-15T12:28:43;16.70;58.70
36416;DHT22;22447;44.530;18.620;2023-04-15T12:31:09;16.70;60.10
36416;DHT22;22447;44.530;18.620;2023-04-15T12:33:36;16.70;59.50
36416;DHT22;22447;44.530;18.620;2023-04-15T12:36:02;16.50;60.40
36416;DHT22;22447;44.530;18.620;2023-04-15T12:38:28;16.50;62.00
36416;DHT22;22447;44.530;18.620;2023-04-15T12:40:54;16.60;63.80
36416;DHT22;22447;44.530;18.620;2023-04-15T12:43:20;17.20;61.20
36416;DHT22;22447;44.530;18.620;2023-04-15T12:45:46;17.70;54.90
36416;DHT22;22447;44.530;18.620;2023-04-15T12:48:12;18.20;53.60
36416;DHT22;22447;44.530;18.620;2023-04-15T12:50:37;18.70;50.40
36416;DHT22;22447;44.530;18.620;2023-04-15T12:53:03;19.10;48.00
36416;DHT22;22447;44.530;18.620;2023-04-15T12:55:29;18.50;44.70
36416;DHT22;22447;44.530;18.620;2023-04-15T12:57:58;18.80;44.50
36416;DHT22;22447;44.530;18.620;2023-04-15T13:00:23;19.30;46.40
36416;DHT22;22447;44.530;18.620;2023-04-15T13:02:49;19.90;46.80
36416;DHT22;22447;44.530;18.620;2023-04-15T13:05:15;19.90;46.00
36416;DHT22;22447;44.530;18.620;2023-04-15T13:07:41;19.90;44.60
36416;DHT22;22447;44.530;18.620;2023-04-15T13:10:07;19.90;43.90
36416;DHT22;22447;44.530;18.620;2023-04-15T13:12:33;19.70;45.30
36416;DHT22;22447;44.530;18.620;2023-04-15T13:15:05;19.40;46.00
36416;DHT22;22447;44.530;18.620;2023-04-15T13:17:31;19.90;44.60
36416;DHT22;22447;44.530;18.620;2023-04-15T13:19:56;20.00;45.30
36416;DHT22;22447;44.530;18.620;2023-04-15T13:22:22;20.70;46.90
36416;DHT22;22447;44.530;18.620;2023-04-15T13:24:48;21.10;43.80
36416;DHT22;22447;44.530;18.620;2023-04-15T13:27:14;21.50;43.60
36416;DHT22;22447;44.530;18.620;2023-04-15T13:29:40;20.40;42.90
36416;DHT22;22447;44.530;18.620;2023-04-15T13:32:05;21.00;42.80
36416;DHT22;22447;44.530;18.620;2023-04-15T13:34:31;21.30;42.30
36416;DHT22;22447;44.530;18.620;2023-04-15T13:36:57;20.60;41.20
36416;DHT22;22447;44.530;18.620;2023-04-15T13:39:23;20.00;43.50
36416;DHT22;22447;44.530;18.620;2023-04-15T13:41:48;20.00;45.30
36416;DHT22;22447;44.530;18.620;2023-04-15T13:44:14;19.50;44.20
36416;DHT22;22447;44.530;18.620;2023-04-15T13:46:40;19.40;45.40
36416;DHT22;22447;44.530;18.620;2023-04-15T13:49:07;19.00;46.10
36416;DHT22;22447;44.530;18.620;2023-04-15T13:51:32;18.80;44.70
36416;DHT22;22447;44.530;18.620;2023-04-15T13:54:01;18.70;46.50
36416;DHT22;22447;44.530;18.620;2023-04-15T13:56:27;18.70;47.70
36416;DHT22;22447;44.530;18.620;2023-04-15T13:58:53;18.70;46.60
36416;DHT22;22447;44.530;18.620;2023-04-15T14:01:23;18.70;49.30
36416;DHT22;22447;44.530;18.620;2023-04-15T14:03:49;18.70;46.90
36416;DHT22;22447;44.530;18.620;2023-04-15T14:06:15;18.60;46.00
36416;DHT22;22447;44.530;18.620;2023-04-15T14:08:41;18.60;45.60
36416;DHT22;22447;44.530;18.620;2023-04-15T14:11:07;18.70;46.10
36416;DHT22;22447;44.530;18.620;2023-04-15T14:13:33;18.80;47.60
36416;DHT22;22447;44.530;18.620;2023-04-15T14:15:58;18.80;46.60
36416;DHT22;22447;44.530;18.620;2023-04-15T14:18:24;19.00;47.40
36416;DHT22;22447;44.530;18.620;2023-04-15T14:20:50;19.20;46.60
36416;DHT22;22447;44.530;18.620;2023-04-15T14:23:16;19.30;46.90
36416;DHT22;22447;44.530;18.620;2023-04-15T14:25:42;19.10;45.20
36416;DHT22;22447;44.530;18.620;2023-04-15T14:28:08;19.30;43.70
36416;DHT22;22447;44.530;18.620;2023-04-15T14:30:33;19.30;43.40
36416;DHT22;22447;44.530;18.620;2023-04-15T14:32:59;19.10;44.00
36416;DHT22;22447;44.530;18.620;2023-04-15T14:35:25;19.30;42.90
36416;DHT22;22447;44.530;18.620;2023-04-15T14:37:52;19.50;44.90
36416;DHT22;22447;44.530;18.620;2023-04-15T14:40:18;19.20;41.50
36416;DHT22;22447;44.530;18.620;2023-04-15T14:42:45;19.20;42.20
36416;DHT22;22447;44.530;18.620;2023-04-15T14:45:11;19.40;44.10
36416;DHT22;22447;44.530;18.620;2023-04-15T14:47:36;19.40;43.50
36416;DHT22;22447;44.530;18.620;2023-04-15T14:50:02;19.40;45.40
36416;DHT22;22447;44.530;18.620;2023-04-15T14:52:31;19.00;43.80
36416;DHT22;22447;44.530;18.620;2023-04-15T14:55:06;18.60;45.00
36416;DHT22;22447;44.530;18.620;2023-04-15T14:57:32;18.40;46.40
36416;DHT22;22447;44.530;18.620;2023-04-15T14:59:58;18.00;46.60
36416;DHT22;22447;44.530;18.620;2023-04-15T15:02:24;17.90;47.30
36416;DHT22;22447;44.530;18.620;2023-04-15T15:04:50;17.80;49.10
36416;DHT22;22447;44.530;18.620;2023-04-15T15:07:16;17.50;47.60
36416;DHT22;22447;44.530;18.620;2023-04-15T15:09:42;17.50;47.40
36416;DHT22;22447;44.530;18.620;2023-04-15T15:12:07;17.60;47.20
36416;DHT22;22447;44.530;18.620;2023-04-15T15:14:33;17.30;48.10
36416;DHT22;22447;44.530;18.620;2023-04-15T15:16:59;17.20;48.90
36416;DHT22;22447;44.530;18.620;2023-04-15T15:19:25;17.20;47.10
36416;DHT22;22447;44.530;18.620;2023-04-15T15:21:51;17.20;47.00
36416;DHT22;22447;44.530;18.620;2023-04-15T15:24:16;17.30;47.80
36416;DHT22;22447;44.530;18.620;2023-04-15T15:26:42;17.30;47.80
36416;DHT22;22447;44.530;18.620;2023-04-15T15:29:08;17.30;47.60
36416;DHT22;22447;44.530;18.620;2023-04-15T15:31:34;17.50;47.80